Time;durP1;ratioP1;P1;durP2;ratioP2;P2;SDS_P1;SDS_P2;PMS_P1;PMS_P2;Temp;Humidity;BMP_temperature;BMP_pressure;BME280_temperature;BME280_humidity;BME280_pressure;Samples;Min_cycle;Max_cycle;Signal;HPM_P1;HPM_P2
2023/10/16 00:02:12;;;;;;;0.22;0.22;;;5.60;90.70;;;;;;4791344;29;20051;-75
2023/10/16 00:04:43;;;;;;;0.40;0.40;;;5.70;90.80;;;;;;4806535;29;20051;-75
2023/10/16 00:07:13;;;;;;;0.57;0.30;;;5.70;90.80;;;;;;4790965;29;20039;-75
2023/10/16 00:09:40;;;;;;;0.60;0.40;;;5.70;90.80;;;;;;4775162;29;20126;-76
2023/10/16 00:12:07;;;;;;;0.52;0.40;;;5.70;90.70;;;;;;4805301;29;20065;-76
2023/10/16 00:14:35;;;;;;;0.93;0.40;;;5.70;90.70;;;;;;4806267;29;20504;-75
2023/10/16 00:17:04;;;;;;;0.73;0.47;;;5.80;90.70;;;;;;4806515;29;20446;-75
2023/10/16 00:19:33;;;;;;;1.20;0.47;;;5.70;90.70;;;;;;4806250;29;20047;-76
2023/10/16 00:22:00;;;;;;;0.40;0.40;;;5.70;90.70;;;;;;4766195;30;20048;-75
2023/10/16 00:24:26;;;;;;;0.35;0.30;;;5.80;90.70;;;;;;4737006;30;20052;-76
2023/10/16 00:26:51;;;;;;;0.40;0.40;;;5.70;90.70;;;;;;4764937;30;20096;-76
2023/10/16 00:29:35;;;;;;;0.52;0.38;;;5.70;90.70;;;;;;4766425;30;20075;-75
2023/10/16 00:32:07;;;;;;;0.70;0.50;;;5.70;90.70;;;;;;4752228;30;20051;-76
2023/10/16 00:34:33;;;;;;;0.38;0.38;;;5.80;90.70;;;;;;4752471;30;20093;-77
2023/10/16 00:37:01;;;;;;;0.30;0.30;;;5.80;90.70;;;;;;4764879;30;20066;-76
2023/10/16 00:39:32;;;;;;;0.68;0.38;;;5.80;90.70;;;;;;4766336;30;20048;-76
2023/10/16 00:41:58;;;;;;;0.38;0.38;;;5.80;90.70;;;;;;4751620;30;20052;-75
2023/10/16 00:44:33;;;;;;;0.40;0.40;;;5.90;90.60;;;;;;4735225;30;20078;-75
2023/10/16 00:47:01;;;;;;;0.50;0.50;;;5.90;90.60;;;;;;4766507;30;20543;-75
2023/10/16 00:49:28;;;;;;;0.40;0.40;;;5.90;90.60;;;;;;4749279;30;20040;-76
2023/10/16 00:51:54;;;;;;;0.38;0.30;;;5.90;90.60;;;;;;4725135;29;20119;-76
2023/10/16 00:54:27;;;;;;;0.65;0.32;;;5.90;90.60;;;;;;4806217;29;20137;-75
2023/10/16 00:56:54;;;;;;;0.38;0.30;;;5.90;90.60;;;;;;4791890;29;20474;-76
2023/10/16 00:59:23;;;;;;;0.40;0.40;;;5.90;90.70;;;;;;4808929;29;20057;-76
2023/10/16 01:02:04;;;;;;;0.30;0.30;;;5.90;90.70;;;;;;4808821;29;20490;-75
2023/10/16 01:04:31;;;;;;;0.32;0.30;;;6.00;90.70;;;;;;4810930;29;20378;-75
2023/10/16 01:06:57;;;;;;;0.25;0.25;;;6.00;90.60;;;;;;4792468;29;20426;-75
2023/10/16 01:09:23;;;;;;;0.60;0.40;;;5.90;90.60;;;;;;4793782;29;20038;-76
2023/10/16 01:11:51;;;;;;;0.30;0.30;;;6.00;90.60;;;;;;4793841;29;20043;-75
2023/10/16 01:14:17;;;;;;;0.30;0.30;;;6.00;90.60;;;;;;4793721;29;20073;-75
2023/10/16 01:16:44;;;;;;;0.40;0.40;;;6.00;90.60;;;;;;4808790;29;20049;-75
2023/10/16 01:19:10;;;;;;;0.38;0.38;;;5.90;90.60;;;;;;4808859;29;20043;-75
2023/10/16 01:21:36;;;;;;;0.30;0.30;;;6.00;90.70;;;;;;4808631;29;20053;-75
2023/10/16 01:24:12;;;;;;;0.57;0.43;;;6.00;90.70;;;;;;4808590;29;20398;-75
2023/10/16 01:26:40;;;;;;;0.68;0.40;;;5.90;90.70;;;;;;4771421;30;20629;-75
2023/10/16 01:29:09;;;;;;;0.55;0.40;;;5.90;90.70;;;;;;4771815;30;20042;-75
2023/10/16 01:31:36;;;;;;;0.63;0.40;;;5.90;90.70;;;;;;4772267;30;20035;-76
2023/10/16 01:34:10;;;;;;;0.47;0.47;;;5.90;90.70;;;;;;4742456;30;20126;-76
2023/10/16 01:36:37;;;;;;;0.40;0.40;;;5.80;91.00;;;;;;4743175;30;20043;-75
2023/10/16 01:39:30;;;;;;;0.55;0.55;;;5.90;90.80;;;;;;4771541;30;20047;-75
2023/10/16 01:41:52;;;;;;;0.68;0.38;;;5.80;90.80;;;;;;4750567;30;20048;-76
2023/10/16 01:44:18;;;;;;;0.70;0.40;;;5.90;90.80;;;;;;4707132;30;20051;-76
2023/10/16 01:46:47;;;;;;;0.40;0.40;;;5.80;90.80;;;;;;4707155;30;20040;-75
2023/10/16 01:49:13;;;;;;;0.40;0.40;;;5.90;90.80;;;;;;4721917;30;20047;-76
2023/10/16 01:51:43;;;;;;;0.52;0.30;;;5.90;90.80;;;;;;4721918;30;20048;-76
2023/10/16 01:54:11;;;;;;;0.52;0.50;;;5.80;90.80;;;;;;4722456;30;20480;-76
2023/10/16 01:56:37;;;;;;;0.40;0.40;;;5.90;90.80;;;;;;4709959;30;20063;-76
2023/10/16 01:59:06;;;;;;;0.40;0.40;;;6.00;90.80;;;;;;4767918;30;20048;-76
2023/10/16 02:01:32;;;;;;;0.40;0.40;;;6.00;90.70;;;;;;4753279;30;20054;-76
2023/10/16 02:03:57;;;;;;;0.65;0.25;;;6.00;90.70;;;;;;4753366;30;20562;-76
2023/10/16 02:06:25;;;;;;;0.45;0.45;;;6.00;90.70;;;;;;4753313;30;20069;-76
2023/10/16 02:08:51;;;;;;;0.38;0.30;;;6.00;90.70;;;;;;4767433;30;20071;-76
2023/10/16 02:11:17;;;;;;;0.57;0.40;;;6.10;90.70;;;;;;4769129;29;20507;-76
2023/10/16 02:13:43;;;;;;;0.65;0.30;;;6.10;90.70;;;;;;4807806;29;20034;-76
2023/10/16 02:16:12;;;;;;;0.45;0.45;;;6.20;90.80;;;;;;4793318;29;20428;-76
2023/10/16 02:18:40;;;;;;;0.80;0.45;;;6.10;90.80;;;;;;4807790;29;20046;-76
2023/10/16 02:21:11;;;;;;;0.20;0.20;;;6.10;90.70;;;;;;4808130;29;20057;-76
2023/10/16 02:23:45;;;;;;;0.40;0.40;;;6.20;90.70;;;;;;4807900;29;20038;-76
2023/10/16 02:26:12;;;;;;;0.45;0.30;;;6.10;90.70;;;;;;4792789;29;20039;-77
2023/10/16 02:28:41;;;;;;;0.32;0.32;;;6.20;90.80;;;;;;4792755;29;20035;-75
2023/10/16 02:31:10;;;;;;;0.65;0.40;;;6.20;90.70;;;;;;4808120;29;20049;-76
2023/10/16 02:33:37;;;;;;;1.35;0.40;;;6.20;90.70;;;;;;4808412;29;20133;-75
2023/10/16 02:36:07;;;;;;;0.55;0.30;;;6.30;90.70;;;;;;4792641;29;20035;-76
2023/10/16 02:38:36;;;;;;;0.28;0.28;;;6.30;90.70;;;;;;4752612;30;20047;-76
2023/10/16 02:41:05;;;;;;;0.40;0.40;;;6.30;90.60;;;;;;4767855;30;20127;-77
2023/10/16 02:43:31;;;;;;;0.85;0.50;;;6.30;90.70;;;;;;4753526;30;20082;-76
2023/10/16 02:46:01;;;;;;;0.47;0.47;;;6.30;90.70;;;;;;4767756;30;20057;-75
2023/10/16 02:48:27;;;;;;;0.32;0.32;;;6.30;90.70;;;;;;4767777;30;20543;-76
2023/10/16 02:50:56;;;;;;;0.90;0.50;;;6.30;90.70;;;;;;4768126;30;20056;-76
2023/10/16 02:53:24;;;;;;;0.40;0.40;;;6.40;90.70;;;;;;4767679;30;20040;-76
2023/10/16 02:55:53;;;;;;;1.25;0.38;;;6.40;90.70;;;;;;4767515;30;20043;-76
2023/10/16 02:58:23;;;;;;;0.50;0.40;;;6.50;90.70;;;;;;4750988;30;20396;-75
2023/10/16 03:00:53;;;;;;;0.30;0.30;;;6.50;90.70;;;;;;4767364;30;20043;-76
2023/10/16 03:03:21;;;;;;;0.35;0.35;;;6.50;90.70;;;;;;4767669;30;20040;-75
2023/10/16 03:05:49;;;;;;;0.20;0.20;;;6.50;90.70;;;;;;4767749;30;20040;-76
2023/10/16 03:08:18;;;;;;;0.25;0.25;;;6.40;90.60;;;;;;4767345;30;20039;-76
2023/10/16 03:10:45;;;;;;;0.63;0.40;;;6.50;90.70;;;;;;4823460;29;20050;-76
2023/10/16 03:13:14;;;;;;;0.38;0.38;;;6.60;90.70;;;;;;4807568;29;20050;-75
2023/10/16 03:15:45;;;;;;;0.50;0.30;;;6.60;90.70;;;;;;4823439;29;20562;-75
2023/10/16 03:18:17;;;;;;;;;;;6.60;90.70;;;;;;4793064;29;20387;-76
2023/10/16 03:20:45;;;;;;;0.75;0.45;;;6.60;90.70;;;;;;4822703;29;20313;-76
2023/10/16 03:23:12;;;;;;;0.28;0.28;;;6.50;90.70;;;;;;4805932;29;20051;-76
2023/10/16 03:28:17;;;;;;;0.30;0.30;;;6.50;90.70;;;;;;4808641;29;20129;-76
2023/10/16 03:30:43;;;;;;;0.40;0.40;;;6.40;90.80;;;;;;4806937;29;20053;-76
2023/10/16 03:33:13;;;;;;;0.70;0.30;;;6.40;90.80;;;;;;4791906;29;20049;-76
2023/10/16 03:35:41;;;;;;;0.20;0.20;;;6.40;90.90;;;;;;4823818;29;20039;-76
2023/10/16 03:38:10;;;;;;;0.30;0.30;;;6.40;91.00;;;;;;4807623;29;20133;-76
2023/10/16 03:40:36;;;;;;;0.32;0.32;;;6.40;91.00;;;;;;4823417;29;20578;-76
2023/10/16 03:43:02;;;;;;;0.22;0.22;;;6.40;91.00;;;;;;4807085;29;20054;-76
2023/10/16 03:45:28;;;;;;;0.22;0.22;;;6.50;91.00;;;;;;4806891;29;20072;-78
2023/10/16 03:47:58;;;;;;;0.38;0.35;;;6.50;91.00;;;;;;4806760;29;20095;-76
2023/10/16 03:50:25;;;;;;;0.63;0.30;;;6.50;91.00;;;;;;4775957;29;20039;-76
2023/10/16 03:52:56;;;;;;;0.47;0.38;;;6.40;90.90;;;;;;4806505;29;20043;-76
2023/10/16 03:55:22;;;;;;;0.20;0.20;;;6.50;90.90;;;;;;4806905;29;20042;-76
2023/10/16 03:57:50;;;;;;;0.35;0.20;;;6.50;90.90;;;;;;4807008;29;20838;-76
2023/10/16 04:00:18;;;;;;;0.30;0.30;;;6.50;90.90;;;;;;4790708;29;20508;-76
2023/10/16 04:02:44;;;;;;;0.28;0.28;;;6.60;90.90;;;;;;4791647;29;20051;-75
2023/10/16 04:05:45;;;;;;;0.30;0.30;;;6.70;90.90;;;;;;4791592;29;20125;-76
2023/10/16 04:07:56;;;;;;;0.40;0.40;;;6.70;90.90;;;;;;4820593;29;20042;-76
2023/10/16 04:10:28;;;;;;;0.35;0.28;;;6.80;90.90;;;;;;4806201;29;20058;-76
2023/10/16 04:12:55;;;;;;;0.32;0.32;;;6.80;90.90;;;;;;4806504;29;20061;-76
2023/10/16 04:15:50;;;;;;;0.30;0.30;;;6.80;90.80;;;;;;4791450;29;20062;-76
2023/10/16 04:18:18;;;;;;;0.28;0.28;;;6.80;90.80;;;;;;4808911;29;20077;-76
2023/10/16 04:20:44;;;;;;;0.45;0.30;;;6.90;90.80;;;;;;4822715;29;20042;-76
2023/10/16 04:23:29;;;;;;;0.30;0.30;;;6.80;90.80;;;;;;4791062;29;20617;-76
2023/10/16 04:29:00;;;;;;;0.43;0.40;;;6.90;90.80;;;;;;4807653;29;20406;-75
2023/10/16 04:34:24;;;;;;;0.50;0.40;;;7.00;90.80;;;;;;4808917;29;20042;-75
2023/10/16 04:37:18;;;;;;;0.28;0.28;;;7.00;90.80;;;;;;4822653;29;20051;-75
2023/10/16 04:43:08;;;;;;;0.30;0.30;;;7.00;90.80;;;;;;4807963;29;20115;-76
2023/10/16 04:48:23;;;;;;;0.40;0.30;;;7.00;90.80;;;;;;4796196;29;20038;-76
2023/10/16 04:50:49;;;;;;;0.65;0.60;;;7.00;90.90;;;;;;4821412;29;20473;-76
2023/10/16 04:53:21;;;;;;;0.68;0.52;;;7.10;90.90;;;;;;4806034;29;20047;-76
2023/10/16 04:56:04;;;;;;;0.38;0.32;;;7.00;90.80;;;;;;4806951;29;20076;-76
2023/10/16 04:58:38;;;;;;;0.90;0.60;;;7.10;90.90;;;;;;4792808;29;20039;-75
2023/10/16 05:04:14;;;;;;;0.35;0.30;;;7.10;90.90;;;;;;4822954;29;20061;-76
2023/10/16 05:06:48;;;;;;;0.38;0.38;;;7.10;90.90;;;;;;4808537;29;20039;-76
2023/10/16 05:17:21;;;;;;;0.45;0.40;;;7.20;90.90;;;;;;4807991;29;20498;-75
2023/10/16 06:16:05;;;;;;;0.40;0.40;;;7.40;91.00;;;;;;4809777;29;20038;-76
2023/10/16 06:18:32;;;;;;;0.40;0.32;;;7.40;91.00;;;;;;4824754;29;20039;-76
2023/10/16 06:21:00;;;;;;;0.40;0.40;;;7.50;91.00;;;;;;4808126;29;20042;-76
2023/10/16 06:23:28;;;;;;;0.40;0.40;;;7.50;91.00;;;;;;4781386;29;20042;-76
2023/10/16 06:25:55;;;;;;;0.43;0.40;;;7.50;91.00;;;;;;4792858;29;20042;-76
2023/10/16 06:28:21;;;;;;;0.30;0.30;;;7.50;91.00;;;;;;4824858;29;20033;-76
2023/10/16 06:30:47;;;;;;;0.52;0.40;;;7.50;91.00;;;;;;4807897;29;20862;-76
2023/10/16 06:33:14;;;;;;;0.40;0.38;;;7.50;91.00;;;;;;4807490;29;20043;-75
2023/10/16 06:35:41;;;;;;;0.50;0.50;;;7.60;91.10;;;;;;4824285;29;20039;-76
2023/10/16 06:38:11;;;;;;;0.93;0.57;;;7.50;91.00;;;;;;4807804;29;20050;-75
2023/10/16 06:40:40;;;;;;;0.50;0.50;;;7.60;91.00;;;;;;4824379;29;20409;-75
2023/10/16 06:43:09;;;;;;;0.38;0.38;;;7.80;91.10;;;;;;4807479;29;20062;-76
2023/10/16 06:45:41;;;;;;;0.40;0.40;;;7.60;91.00;;;;;;4793474;29;20038;-76
2023/10/16 06:48:14;;;;;;;1.10;0.70;;;7.70;91.10;;;;;;4807250;29;20528;-76
2023/10/16 06:50:53;;;;;;;0.50;0.50;;;7.70;91.10;;;;;;4824593;29;20180;-75
2023/10/16 06:53:19;;;;;;;0.40;0.40;;;7.70;91.10;;;;;;4824593;29;20094;-75
2023/10/16 06:55:45;;;;;;;0.30;0.30;;;7.80;91.10;;;;;;4806203;29;20495;-76
2023/10/16 06:58:12;;;;;;;0.65;0.60;;;7.70;91.00;;;;;;4792036;29;20048;-76
2023/10/16 07:00:39;;;;;;;0.50;0.50;;;7.70;91.00;;;;;;4807499;29;20054;-76
2023/10/16 07:03:12;;;;;;;0.60;0.52;;;7.80;91.00;;;;;;4792411;29;20042;-75
2023/10/16 07:05:48;;;;;;;0.57;0.40;;;7.80;91.00;;;;;;4807527;29;20468;-80
2023/10/16 07:08:20;;;;;;;0.30;0.30;;;7.90;91.10;;;;;;4814915;29;20085;-77
2023/10/16 07:10:49;;;;;;;0.55;0.52;;;7.80;91.00;;;;;;4785753;30;20098;-76
2023/10/16 07:13:26;;;;;;;0.25;0.25;;;7.90;91.10;;;;;;4785437;30;20530;-77
2023/10/16 07:15:56;;;;;;;0.70;0.50;;;7.90;91.00;;;;;;4785080;30;20054;-77
2023/10/16 07:18:24;;;;;;;0.65;0.50;;;8.00;91.00;;;;;;4755543;30;20526;-76
2023/10/16 07:20:59;;;;;;;0.50;0.47;;;8.00;91.00;;;;;;4786517;30;20040;-77
2023/10/16 07:23:29;;;;;;;0.52;0.52;;;8.00;91.00;;;;;;4785825;30;20051;-77
2023/10/16 07:26:02;;;;;;;0.93;0.50;;;8.10;91.00;;;;;;4755951;30;20088;-76
2023/10/16 07:28:29;;;;;;;0.82;0.50;;;8.10;91.00;;;;;;4783302;30;20495;-77
2023/10/16 07:30:57;;;;;;;0.70;0.60;;;8.10;91.00;;;;;;4770179;30;20106;-76
2023/10/16 07:33:23;;;;;;;0.45;0.40;;;8.20;91.00;;;;;;4785487;30;20528;-77
2023/10/16 07:35:51;;;;;;;1.00;0.60;;;8.10;91.00;;;;;;4769992;30;20562;-76
2023/10/16 07:38:20;;;;;;;0.73;0.60;;;8.20;91.00;;;;;;4785726;30;20069;-76
2023/10/16 07:40:53;;;;;;;0.63;0.40;;;8.30;91.00;;;;;;4789046;29;20054;-76
2023/10/16 07:43:28;;;;;;;1.35;0.50;;;8.20;90.90;;;;;;4792310;29;20062;-77
2023/10/16 07:48:44;;;;;;;1.20;0.60;;;8.30;91.00;;;;;;4795730;29;20129;-77
2023/10/16 07:51:16;;;;;;;0.40;0.40;;;8.40;91.00;;;;;;4807259;29;20042;-76
2023/10/16 07:53:41;;;;;;;0.90;0.70;;;8.40;90.90;;;;;;4790491;29;20038;-76
2023/10/16 07:58:49;;;;;;;0.57;0.50;;;8.60;90.90;;;;;;4808860;29;20451;-77
2023/10/16 08:01:32;;;;;;;0.52;0.52;;;8.60;90.90;;;;;;4820859;29;20069;-77
2023/10/16 08:03:59;;;;;;;0.57;0.47;;;8.60;90.80;;;;;;4807969;29;20497;-78
2023/10/16 08:06:28;;;;;;;0.63;0.40;;;8.70;90.80;;;;;;4792127;29;20105;-79
2023/10/16 08:09:48;;;;;;;0.75;0.75;;;8.70;90.80;;;;;;4758850;30;20043;-78
2023/10/16 08:11:43;;;;;;;0.73;0.50;;;8.80;90.80;;;;;;4766605;30;20052;-77
2023/10/16 08:14:10;;;;;;;0.77;0.50;;;8.80;90.70;;;;;;4767182;30;20044;-76
2023/10/16 08:16:39;;;;;;;0.63;0.60;;;8.90;90.80;;;;;;4751672;30;20051;-77
2023/10/16 08:19:14;;;;;;;0.63;0.63;;;9.00;90.80;;;;;;4766738;30;20173;-76
2023/10/16 08:21:42;;;;;;;0.50;0.50;;;9.00;90.70;;;;;;4769095;30;20592;-76
2023/10/16 08:24:24;;;;;;;0.80;0.75;;;9.00;90.70;;;;;;4752218;30;20052;-76
2023/10/16 08:26:52;;;;;;;0.70;0.70;;;9.10;90.60;;;;;;4734969;30;20500;-77
2023/10/16 08:29:20;;;;;;;0.40;0.40;;;9.20;90.60;;;;;;4732903;30;20045;-76
2023/10/16 08:32:43;;;;;;;1.25;0.70;;;9.30;90.60;;;;;;4718424;30;20049;-77
2023/10/16 08:34:35;;;;;;;0.70;0.50;;;9.40;90.60;;;;;;4733543;30;20489;-76
2023/10/16 08:37:03;;;;;;;1.02;0.70;;;9.40;90.50;;;;;;4733917;30;20209;-77
2023/10/16 08:39:36;;;;;;;0.60;0.60;;;9.40;90.50;;;;;;4725641;30;20076;-77
2023/10/16 08:42:22;;;;;;;1.40;0.90;;;9.50;90.50;;;;;;4720633;30;20102;-76
2023/10/16 08:44:51;;;;;;;0.60;0.57;;;9.50;90.50;;;;;;4748930;30;20147;-75
2023/10/16 08:47:24;;;;;;;0.57;0.52;;;9.50;90.50;;;;;;4734415;30;20032;-75
2023/10/16 08:49:54;;;;;;;0.93;0.70;;;9.60;90.50;;;;;;4706104;30;20143;-75
2023/10/16 08:52:22;;;;;;;1.27;1.02;;;9.80;90.50;;;;;;4734565;30;20048;-75
2023/10/16 08:57:22;;;;;;;0.77;0.73;;;9.70;90.50;;;;;;4746860;30;20070;-76
2023/10/16 08:59:50;;;;;;;1.33;0.80;;;9.70;90.40;;;;;;4754663;30;20094;-75
2023/10/16 09:02:24;;;;;;;0.82;0.60;;;9.80;90.70;;;;;;4769691;30;20090;-77
2023/10/16 09:04:53;;;;;;;0.73;0.70;;;9.90;90.40;;;;;;4742537;30;20140;-74
2023/10/16 09:07:19;;;;;;;1.00;0.90;;;9.90;90.40;;;;;;4752586;30;20029;-77
2023/10/16 09:09:49;;;;;;;1.50;0.80;;;9.90;90.40;;;;;;4748790;30;20097;-77
2023/10/16 09:15:05;;;;;;;1.08;0.70;;;10.10;90.40;;;;;;4748790;30;20056;-75
2023/10/16 09:17:32;;;;;;;0.70;0.70;;;10.10;90.30;;;;;;4762057;30;20628;-76
2023/10/16 09:19:58;;;;;;;0.95;0.70;;;10.30;90.30;;;;;;4714523;30;20058;-76
2023/10/16 09:22:28;;;;;;;0.80;0.57;;;10.50;90.30;;;;;;4716663;30;20236;-77
2023/10/16 09:24:58;;;;;;;0.52;0.52;;;10.40;90.20;;;;;;4716163;30;20037;-76
2023/10/16 09:27:31;;;;;;;0.75;0.70;;;10.70;90.10;;;;;;4716531;30;20041;-78
2023/10/16 09:30:14;;;;;;;0.90;0.70;;;10.60;90.00;;;;;;4702619;30;20053;-80
2023/10/16 09:32:40;;;;;;;1.20;0.80;;;10.80;90.10;;;;;;4689233;30;20087;-76
2023/10/16 09:35:12;;;;;;;1.27;0.70;;;10.80;90.00;;;;;;4715441;30;20050;-76
2023/10/16 09:37:38;;;;;;;0.52;0.50;;;10.90;90.00;;;;;;4771570;30;20534;-76
2023/10/16 09:40:19;;;;;;;1.85;0.75;;;11.00;89.90;;;;;;4755154;30;20047;-76
2023/10/16 09:42:55;;;;;;;0.98;0.60;;;11.10;89.80;;;;;;4761773;30;20082;-76
2023/10/16 09:45:23;;;;;;;0.45;0.45;;;11.20;89.70;;;;;;4761403;30;20039;-76
2023/10/16 09:47:51;;;;;;;0.70;0.45;;;11.30;89.60;;;;;;4766051;30;20484;-75
2023/10/16 09:50:19;;;;;;;0.50;0.50;;;11.30;89.50;;;;;;4740206;29;20051;-76
2023/10/16 09:52:49;;;;;;;0.75;0.50;;;11.40;89.50;;;;;;4802409;29;20062;-80
2023/10/16 09:55:18;;;;;;;1.25;0.43;;;11.40;89.50;;;;;;4820973;29;20073;-77
2023/10/16 09:57:54;;;;;;;0.50;0.40;;;11.40;89.50;;;;;;4805247;29;20069;-76
2023/10/16 10:00:28;;;;;;;0.50;0.40;;;11.40;90.00;;;;;;4795410;29;20383;-75
2023/10/16 10:03:06;;;;;;;0.32;0.32;;;11.40;89.50;;;;;;4827805;29;20054;-75
2023/10/16 10:06:08;;;;;;;0.65;0.40;;;11.40;89.50;;;;;;4830768;29;20054;-77
2023/10/16 10:08:51;;;;;;;0.32;0.30;;;11.70;89.50;;;;;;4817396;29;20054;-78
2023/10/16 10:11:37;;;;;;;0.30;0.30;;;11.60;89.30;;;;;;4800112;29;20037;-78
2023/10/16 10:14:35;;;;;;;0.20;0.20;;;11.70;89.40;;;;;;4802250;29;20034;-77
2023/10/16 10:17:04;;;;;;;0.38;0.38;;;11.70;89.30;;;;;;4819120;29;20037;-78
2023/10/16 10:19:31;;;;;;;0.25;0.25;;;11.80;89.10;;;;;;4835869;29;20034;-78
2023/10/16 10:22:06;;;;;;;0.30;0.20;;;11.80;89.00;;;;;;4807597;29;20050;-78
2023/10/16 10:24:37;;;;;;;0.75;0.40;;;11.90;88.90;;;;;;4837357;29;20038;-78
2023/10/16 10:27:04;;;;;;;0.93;0.40;;;11.90;88.90;;;;;;4811551;29;20034;-78
2023/10/16 10:29:30;;;;;;;0.40;0.30;;;11.90;88.90;;;;;;4801967;30;20098;-78
2023/10/16 10:32:09;;;;;;;0.30;0.30;;;12.00;88.80;;;;;;4792466;30;20051;-78
2023/10/16 10:34:34;;;;;;;0.52;0.20;;;11.90;88.70;;;;;;4791191;30;20134;-78
2023/10/16 10:37:14;;;;;;;0.40;0.35;;;12.00;88.80;;;;;;4800835;30;20051;-76
2023/10/16 10:39:52;;;;;;;0.20;0.20;;;12.00;88.80;;;;;;4745590;30;20058;-77
2023/10/16 10:42:36;;;;;;;0.40;0.30;;;12.00;88.80;;;;;;4790613;29;20086;-78
2023/10/16 10:47:40;;;;;;;0.85;0.30;;;12.00;88.80;;;;;;4758442;30;20058;-77
2023/10/16 10:50:38;;;;;;;0.63;0.40;;;12.10;88.70;;;;;;4739462;30;20080;-77
2023/10/16 10:53:13;;;;;;;0.68;0.30;;;12.20;88.60;;;;;;4705583;30;20064;-78
2023/10/16 10:56:07;;;;;;;0.30;0.30;;;12.10;88.60;;;;;;4729148;30;20025;-79
2023/10/16 10:58:39;;;;;;;0.63;0.40;;;12.20;88.60;;;;;;4719492;30;20076;-78
2023/10/16 11:03:51;;;;;;;0.30;0.30;;;12.20;88.50;;;;;;4680568;30;20045;-77
2023/10/16 11:06:38;;;;;;;0.20;0.20;;;12.30;88.60;;;;;;4691437;30;20058;-79
2023/10/16 11:09:18;;;;;;;0.65;0.25;;;12.30;88.40;;;;;;4677045;30;20041;-77
2023/10/16 11:11:50;;;;;;;0.30;0.30;;;12.30;88.30;;;;;;4627758;30;20043;-76
2023/10/16 11:14:17;;;;;;;0.63;0.20;;;12.40;88.10;;;;;;4630048;30;20043;-76
2023/10/16 11:16:45;;;;;;;0.30;0.20;;;12.50;87.90;;;;;;4662722;30;20104;-75
2023/10/16 11:19:48;;;;;;;0.20;0.20;;;12.50;87.60;;;;;;4697887;30;20073;-78
2023/10/16 11:22:31;;;;;;;1.27;0.30;;;12.60;87.50;;;;;;4677152;30;20145;-78
2023/10/16 11:24:58;;;;;;;0.10;0.10;;;12.50;87.40;;;;;;4676851;30;20046;-76
2023/10/16 11:27:24;;;;;;;0.20;0.20;;;12.60;87.40;;;;;;4673261;30;20042;-76
2023/10/16 11:29:57;;;;;;;0.40;0.28;;;12.60;87.40;;;;;;4668106;30;20041;-75
2023/10/16 11:32:35;;;;;;;0.20;0.20;;;12.70;87.30;;;;;;4714682;30;20465;-77
2023/10/16 11:35:13;;;;;;;0.20;0.20;;;12.70;87.30;;;;;;4703606;30;20092;-76
2023/10/16 11:37:39;;;;;;;0.20;0.20;;;12.70;87.30;;;;;;4719911;30;20056;-76
2023/10/16 11:40:18;;;;;;;0.20;0.20;;;12.70;87.20;;;;;;4731085;30;20128;-77
2023/10/16 11:42:45;;;;;;;0.63;0.25;;;12.70;87.20;;;;;;4726167;30;20056;-76
2023/10/16 11:45:23;;;;;;;0.45;0.20;;;12.60;87.10;;;;;;4749380;30;20048;-79
2023/10/16 11:50:38;;;;;;;1.35;0.30;;;12.60;87.80;;;;;;4744063;30;20070;-75
2023/10/16 11:53:07;;;;;;;0.20;0.10;;;12.50;87.30;;;;;;4732792;30;20048;-75
2023/10/16 11:55:36;;;;;;;0.50;0.20;;;12.60;87.40;;;;;;4745633;30;20048;-76
2023/10/16 11:58:07;;;;;;;0.43;0.30;;;12.60;87.40;;;;;;4731588;30;20104;-75
2023/10/16 12:00:35;;;;;;;0.10;0.10;;;12.70;87.40;;;;;;4743179;30;20033;-75
2023/10/16 12:03:07;;;;;;;0.20;0.20;;;12.80;87.40;;;;;;4744260;30;20061;-75
2023/10/16 12:05:36;;;;;;;0.10;0.10;;;12.70;87.20;;;;;;4728786;30;20108;-75
2023/10/16 12:08:02;;;;;;;0.10;0.10;;;12.70;87.00;;;;;;4725377;30;20040;-76
2023/10/16 12:10:31;;;;;;;0.17;0.17;;;12.90;87.10;;;;;;4759036;30;20051;-77
2023/10/16 12:12:58;;;;;;;0.82;0.20;;;12.80;86.90;;;;;;4761732;30;20074;-76
2023/10/16 12:15:25;;;;;;;0.40;0.20;;;13.00;86.90;;;;;;4763760;30;20052;-78
2023/10/16 12:18:12;;;;;;;0.20;0.20;;;13.10;86.80;;;;;;4763570;30;20054;-77
2023/10/16 12:20:43;;;;;;;0.10;0.10;;;13.30;86.80;;;;;;4755919;30;20067;-75
2023/10/16 12:23:11;;;;;;;0.15;0.15;;;13.20;86.50;;;;;;4758596;30;20062;-75
2023/10/16 12:25:38;;;;;;;0.32;0.20;;;13.20;86.50;;;;;;4751368;30;20094;-75
2023/10/16 12:28:08;;;;;;;1.23;0.20;;;13.20;86.30;;;;;;4758662;30;20051;-74
2023/10/16 12:30:36;;;;;;;0.30;0.28;;;13.20;86.30;;;;;;4764761;30;20108;-75
2023/10/16 12:33:06;;;;;;;0.20;0.20;;;13.30;86.30;;;;;;4778409;30;20044;-74
2023/10/16 12:35:34;;;;;;;0.35;0.20;;;13.10;86.20;;;;;;4767972;30;20040;-75
2023/10/16 12:38:04;;;;;;;0.40;0.13;;;13.00;86.30;;;;;;4782067;30;20035;-76
2023/10/16 12:40:37;;;;;;;0.10;0.10;;;13.10;86.50;;;;;;4787238;30;20036;-75
2023/10/16 12:43:06;;;;;;;0.15;0.10;;;13.10;86.60;;;;;;4770570;30;20607;-75
2023/10/16 12:45:33;;;;;;;0.20;0.20;;;13.00;86.60;;;;;;4809231;29;20086;-75
2023/10/16 12:47:59;;;;;;;0.10;0.10;;;13.00;86.70;;;;;;4820148;29;20050;-76
2023/10/16 12:50:27;;;;;;;0.10;0.10;;;13.00;86.80;;;;;;4810808;29;20567;-75
2023/10/16 12:52:58;;;;;;;0.10;0.10;;;12.90;86.80;;;;;;4799752;29;20529;-75
2023/10/16 12:55:31;;;;;;;0.20;0.20;;;13.00;86.90;;;;;;4838788;29;20046;-76
2023/10/16 12:57:57;;;;;;;0.43;0.20;;;13.00;86.80;;;;;;4814049;29;20106;-77
2023/10/16 13:00:23;;;;;;;0.20;0.20;;;13.10;86.90;;;;;;4809104;29;20518;-76
2023/10/16 13:02:51;;;;;;;0.20;0.20;;;13.10;86.90;;;;;;4825252;29;20401;-75
2023/10/16 13:05:19;;;;;;;0.35;0.20;;;13.10;86.90;;;;;;4809553;29;20051;-75
2023/10/16 13:07:48;;;;;;;0.10;0.10;;;13.20;86.90;;;;;;4794259;29;20041;-76
2023/10/16 13:10:20;;;;;;;0.17;0.10;;;13.20;86.80;;;;;;4818619;29;20096;-76
2023/10/16 13:12:47;;;;;;;;;;;13.30;86.80;;;;;;4815430;29;20054;-78
2023/10/16 13:15:24;;;;;;;0.10;0.10;;;13.30;86.50;;;;;;4834305;29;19916;-77
2023/10/16 13:17:58;;;;;;;0.10;0.10;;;13.40;86.50;;;;;;4802327;29;20050;-75
2023/10/16 13:20:36;;;;;;;0.20;0.20;;;13.40;86.40;;;;;;4802320;29;20055;-78
2023/10/16 13:23:05;;;;;;;0.10;0.10;;;13.40;86.50;;;;;;4741126;30;20043;-79
2023/10/16 13:25:31;;;;;;;0.20;0.20;;;13.50;86.40;;;;;;4716680;30;20044;-77
2023/10/16 13:28:10;;;;;;;0.20;0.20;;;13.50;86.30;;;;;;4693124;30;20066;-76
2023/10/16 13:30:37;;;;;;;0.40;0.13;;;13.40;86.10;;;;;;4685593;30;20049;-77
2023/10/16 13:33:09;;;;;;;0.22;0.17;;;13.60;86.20;;;;;;4682391;30;20418;-75
2023/10/16 13:35:38;;;;;;;;;;;13.50;86.10;;;;;;4667397;30;20042;-77
2023/10/16 13:38:05;;;;;;;0.22;0.20;;;13.50;86.10;;;;;;4668009;30;19926;-77
2023/10/16 13:40:32;;;;;;;0.17;0.17;;;13.50;86.10;;;;;;4644201;30;20094;-75
2023/10/16 13:43:00;;;;;;;1.00;0.30;;;13.50;86.10;;;;;;4629988;31;20506;-76
2023/10/16 13:45:27;;;;;;;0.73;0.20;;;13.50;86.20;;;;;;4630046;31;20111;-76
2023/10/16 13:48:09;;;;;;;0.28;0.20;;;13.40;86.20;;;;;;4644142;30;20094;-76
2023/10/16 13:51:13;;;;;;;0.20;0.20;;;13.40;86.30;;;;;;4626711;31;20055;-77
2023/10/16 13:54:42;;;;;;;0.20;0.17;;;13.40;86.40;;;;;;4556127;31;20576;-77
2023/10/16 13:57:15;;;;;;;0.20;0.20;;;13.40;86.40;;;;;;4580080;31;20124;-76
2023/10/16 13:59:40;;;;;;;0.70;0.10;;;13.30;86.30;;;;;;4551350;31;20041;-75
2023/10/16 14:02:07;;;;;;;0.13;0.13;;;13.40;86.40;;;;;;4596843;31;20509;-76
2023/10/16 14:04:45;;;;;;;1.23;0.20;;;13.40;86.40;;;;;;4586833;31;20592;-76
2023/10/16 14:10:39;;;;;;;0.45;0.20;;;13.40;86.40;;;;;;4553417;31;20413;-77
2023/10/16 14:13:18;;;;;;;0.13;0.13;;;13.50;86.30;;;;;;4565313;31;20053;-77
2023/10/16 14:15:48;;;;;;;0.20;0.20;;;13.50;86.30;;;;;;4538546;31;20436;-76
2023/10/16 14:18:15;;;;;;;0.20;0.20;;;13.40;86.20;;;;;;4581117;31;20397;-77
2023/10/16 14:20:47;;;;;;;0.10;0.10;;;13.30;86.10;;;;;;4589410;31;20462;-78
2023/10/16 14:23:15;;;;;;;0.13;0.13;;;13.40;86.30;;;;;;4595356;31;20068;-78
2023/10/16 14:25:48;;;;;;;0.20;0.20;;;13.40;86.30;;;;;;4644631;30;20034;-77
2023/10/16 14:28:50;;;;;;;0.10;0.10;;;13.40;86.30;;;;;;4708408;30;20080;-78
2023/10/16 14:31:25;;;;;;;0.15;0.15;;;13.40;86.30;;;;;;4732976;30;20589;-77
2023/10/16 14:37:22;;;;;;;0.13;0.13;;;13.30;86.30;;;;;;4774767;29;20061;-75
2023/10/16 14:40:01;;;;;;;0.10;0.10;;;13.30;86.30;;;;;;4790373;29;20043;-75
2023/10/16 14:43:04;;;;;;;0.10;0.10;;;13.40;86.60;;;;;;4806574;29;20054;-77
2023/10/16 14:45:32;;;;;;;0.30;0.20;;;13.30;86.30;;;;;;4800495;29;20047;-78
2023/10/16 14:48:03;;;;;;;0.25;0.20;;;13.30;86.30;;;;;;4822687;29;20042;-77
2023/10/16 14:50:41;;;;;;;0.28;0.20;;;13.30;86.30;;;;;;4754348;30;20119;-78
2023/10/16 14:53:19;;;;;;;0.52;0.20;;;13.30;86.30;;;;;;4719544;30;20152;-78
2023/10/16 14:55:56;;;;;;;0.65;0.20;;;13.20;86.30;;;;;;4705741;30;20050;-78
2023/10/16 14:58:31;;;;;;;0.13;0.13;;;13.30;86.30;;;;;;4791484;24;20034;-78
2023/10/16 15:01:14;;;;;;;0.20;0.20;;;13.20;86.20;;;;;;4793900;29;20103;-77
2023/10/16 15:07:17;;;;;;;0.32;0.20;;;13.30;86.30;;;;;;4746029;30;20134;-77